createdAt,value
2022-11-04T00:01:35.737Z,98444.47
2022-11-04T00:04:47.812Z,98442.20
2022-11-04T00:08:14.363Z,98452.49
2022-11-04T00:11:53.218Z,98451.53
2022-11-04T00:15:07.531Z,98436.38
2022-11-04T00:18:19.763Z,98432.58
2022-11-04T00:21:46.286Z,98422.59
2022-11-04T00:25:12.932Z,98418.81
2022-11-04T00:28:40.556Z,98409.48
2022-11-04T00:32:04.435Z,98411.03
2022-11-04T00:35:18.649Z,98397.80
2022-11-04T00:38:31.937Z,98397.13
2022-11-04T00:41:44.182Z,98397.41
2022-11-04T00:44:56.516Z,98391.27
2022-11-04T00:48:09.267Z,98397.10
2022-11-04T00:51:22.405Z,98388.47
2022-11-04T00:54:34.626Z,98389.88
2022-11-04T00:57:46.732Z,98386.67
2022-11-04T01:00:59.226Z,98386.52
2022-11-04T01:04:11.889Z,98376.48
2022-11-04T01:07:24.154Z,98344.59
2022-11-04T01:10:36.358Z,98356.73
2022-11-04T01:13:48.867Z,98358.28
2022-11-04T01:17:01.100Z,98351.16
2022-11-04T01:20:15.441Z,98352.55
2022-11-04T01:23:27.801Z,98350.30
2022-11-04T01:26:40.054Z,98344.36
2022-11-04T01:29:52.256Z,98346.95
2022-11-04T01:33:04.672Z,98339.47
2022-11-04T01:36:18.308Z,98332.78
2022-11-04T01:39:30.721Z,98345.30
2022-11-04T01:42:42.848Z,98327.75
2022-11-04T01:45:58.695Z,98318.47
2022-11-04T01:49:30.309Z,98323.33
2022-11-04T01:52:48.095Z,98320.27
2022-11-04T01:56:05.100Z,98308.30
2022-11-04T01:59:19.419Z,98304.95
2022-11-04T02:02:31.615Z,98306.61
2022-11-04T02:05:44.988Z,98293.27
2022-11-04T02:08:57.477Z,98285.73
2022-11-04T02:12:25.424Z,98273.22
2022-11-04T02:15:46.290Z,98285.45
2022-11-04T02:19:05.923Z,98274.03
2022-11-04T02:22:50.361Z,98276.81
2022-11-04T02:26:46.528Z,98271.13
2022-11-04T02:30:15.922Z,98265.70
2022-11-04T02:33:33.165Z,98264.16
2022-11-04T02:36:52.908Z,98251.53
2022-11-04T02:40:13.352Z,98259.47
2022-11-04T02:43:31.759Z,98259.47
2022-11-04T02:46:49.686Z,98236.77
2022-11-04T02:50:05.910Z,98252.09
2022-11-04T02:53:23.717Z,98256.53
2022-11-04T02:56:39.201Z,98207.27
2022-11-04T02:59:57.174Z,98246.25
2022-11-04T03:03:13.933Z,98239.02
2022-11-04T03:06:29.844Z,98236.09
2022-11-04T03:09:46.108Z,98230.95
2022-11-04T03:13:03.514Z,98242.91
2022-11-04T03:16:20.924Z,98219.68
2022-11-04T03:19:38.863Z,98232.08
2022-11-04T03:22:53.225Z,98239.56
2022-11-04T03:26:14.311Z,98229.28
2022-11-04T03:29:33.856Z,98227.75
2022-11-04T03:32:51.441Z,98220.66
2022-11-04T03:36:04.538Z,98221.06
2022-11-04T03:39:16.800Z,98202.30
2022-11-04T03:42:29.790Z,98203.94
2022-11-04T03:45:42.247Z,98211.18
2022-11-04T03:48:58.459Z,98194.50
2022-11-04T03:52:10.975Z,98198.11
2022-11-04T03:55:23.603Z,98182.80
2022-11-04T03:58:43.888Z,98189.22
2022-11-04T04:02:00.861Z,98192.67
2022-11-04T04:05:19.063Z,98185.73
2022-11-04T04:08:38.420Z,98198.95
2022-11-04T04:11:57.059Z,98192.53
2022-11-04T04:15:15.810Z,98182.52
2022-11-04T04:18:35.604Z,98172.51
2022-11-04T04:21:52.754Z,98172.25
2022-11-04T04:25:22.462Z,98159.04
2022-11-04T04:28:34.636Z,98157.24
2022-11-04T04:31:55.770Z,98152.77
2022-11-04T04:35:22.505Z,98137.60
2022-11-04T04:38:57.860Z,98143.03
2022-11-04T04:42:25.000Z,98133.72
2022-11-04T04:45:41.420Z,98127.18
2022-11-04T04:48:53.491Z,98127.48
2022-11-04T04:52:05.664Z,98117.86
2022-11-04T04:55:19.364Z,98129.84
2022-11-04T04:58:31.423Z,98132.06
2022-11-04T05:01:43.458Z,98139.01
2022-11-04T05:04:56.363Z,98128.03
2022-11-04T05:08:14.099Z,98121.77
2022-11-04T05:11:27.246Z,98127.75
2022-11-04T05:14:39.834Z,98123.58
2022-11-04T05:17:52.048Z,98116.64
2022-11-04T05:21:06.537Z,98111.62
2022-11-04T05:24:19.504Z,98111.62
2022-11-04T05:27:31.699Z,98111.63
2022-11-04T05:30:44.823Z,98119.14
2022-11-04T05:33:58.199Z,98121.78
2022-11-04T05:37:10.427Z,98130.41
2022-11-04T05:40:23.061Z,98126.92
2022-11-04T05:43:35.310Z,98124.56
2022-11-04T05:46:47.555Z,98112.17
2022-11-04T05:49:59.897Z,98109.97
2022-11-04T05:53:12.420Z,98120.23
2022-11-04T05:56:25.080Z,98128.59
2022-11-04T05:59:37.204Z,98132.05
2022-11-04T06:02:49.532Z,98124.70
2022-11-04T06:06:01.999Z,98126.09
2022-11-04T06:09:14.914Z,98113.56
2022-11-04T06:12:27.139Z,98118.56
2022-11-04T06:15:39.439Z,98117.16
2022-11-04T06:18:51.823Z,98115.75
2022-11-04T06:22:04.443Z,98108.27
2022-11-04T06:25:17.817Z,98117.43
2022-11-04T06:28:30.199Z,98129.95
2022-11-04T06:31:42.391Z,98129.39
2022-11-04T06:34:54.719Z,98116.86
2022-11-04T06:38:07.164Z,98121.85
2022-11-04T06:41:22.510Z,98125.19
2022-11-04T06:44:36.089Z,98128.52
2022-11-04T06:47:48.435Z,98125.64
2022-11-04T06:51:01.489Z,98112.30
2022-11-04T06:54:13.788Z,98127.14
2022-11-04T06:57:25.989Z,98121.44
2022-11-04T07:00:38.707Z,98122.09
2022-11-04T07:03:52.819Z,98115.84
2022-11-04T07:07:05.137Z,98120.11
2022-11-04T07:10:17.952Z,98110.63
2022-11-04T07:13:30.378Z,98103.00
2022-11-04T07:16:43.114Z,98099.06
2022-11-04T07:19:55.641Z,98102.94
2022-11-04T07:23:08.524Z,98103.25
2022-11-04T07:26:21.653Z,98106.51
2022-11-04T07:29:34.111Z,98106.75
2022-11-04T07:32:46.437Z,98092.58
2022-11-04T07:35:59.288Z,98094.94
2022-11-04T07:39:12.537Z,98088.48
2022-11-04T07:42:25.030Z,98100.16
2022-11-04T07:45:39.507Z,98096.86
2022-11-04T07:48:52.314Z,98082.93
2022-11-04T07:52:04.716Z,98073.09
2022-11-04T07:55:18.726Z,98079.04
2022-11-04T07:58:32.613Z,98058.55
2022-11-04T08:01:45.291Z,98069.03
2022-11-04T08:04:57.812Z,98068.74
2022-11-04T08:08:10.766Z,98070.44
2022-11-04T08:11:28.441Z,98052.21
2022-11-04T08:14:40.822Z,98062.45
2022-11-04T08:17:53.184Z,98049.42
2022-11-04T08:21:07.045Z,98047.45
2022-11-04T08:24:19.991Z,98041.59
2022-11-04T08:27:32.367Z,98022.67
2022-11-04T08:30:44.955Z,98029.80
2022-11-04T08:33:58.799Z,98032.98
2022-11-04T08:37:11.133Z,98013.39
2022-11-04T08:40:24.729Z,98030.94
2022-11-04T08:43:37.412Z,98009.06
2022-11-04T08:46:51.420Z,97999.13
2022-11-04T08:50:03.861Z,97983.27
2022-11-04T08:53:16.221Z,97997.02
2022-11-04T08:56:31.081Z,97991.41
2022-11-04T08:59:44.175Z,97989.01
2022-11-04T09:02:56.696Z,97989.09
2022-11-04T09:06:09.485Z,97972.52
2022-11-04T09:09:23.427Z,97980.41
2022-11-04T09:12:35.793Z,97980.50
2022-11-04T09:15:49.110Z,97976.69
2022-11-04T09:19:02.088Z,97966.35
2022-11-04T09:22:14.444Z,97962.56
2022-11-04T09:25:27.045Z,97966.36
2022-11-04T09:28:40.517Z,97962.21
2022-11-04T09:31:53.136Z,97957.70
2022-11-04T09:35:05.555Z,97948.20
2022-11-04T09:38:17.985Z,97945.00
2022-11-04T09:41:58.273Z,97934.92
2022-11-04T09:45:23.171Z,97933.03
2022-11-04T09:48:38.677Z,97926.48
2022-11-04T09:51:54.885Z,97903.81
2022-11-04T09:55:14.539Z,97918.56
2022-11-04T09:58:27.285Z,97913.27
2022-11-04T10:01:46.895Z,97917.67
2022-11-04T10:05:09.460Z,97910.09
2022-11-04T10:08:54.971Z,97906.45
2022-11-04T10:12:19.735Z,97911.52
2022-11-04T10:15:51.228Z,97905.58
2022-11-04T10:19:28.909Z,97905.41
2022-11-04T10:22:41.433Z,97898.08
2022-11-04T10:25:59.198Z,97893.52
2022-11-04T10:29:18.061Z,97881.41
2022-11-04T10:32:34.769Z,97886.61
2022-11-04T10:35:51.717Z,97876.71
2022-11-04T10:39:02.567Z,97875.88
2022-11-04T10:42:16.389Z,97873.40
2022-11-04T10:45:34.940Z,97871.77
2022-11-04T10:48:55.371Z,97871.73
2022-11-04T10:52:08.627Z,97876.67
2022-11-04T10:55:34.232Z,97876.67
2022-11-04T10:58:51.164Z,97881.19
2022-11-04T11:02:02.611Z,97878.52
2022-11-04T11:05:29.308Z,97870.17
2022-11-04T11:08:43.150Z,97872.17
2022-11-04T11:11:58.134Z,97859.57
2022-11-04T11:15:23.979Z,97861.00
2022-11-04T11:18:37.227Z,97852.72
2022-11-04T11:21:53.531Z,97846.35
2022-11-04T11:25:36.216Z,97849.86
2022-11-04T11:28:59.035Z,97856.64
2022-11-04T11:32:11.720Z,97843.05
2022-11-04T11:35:28.340Z,97847.14
2022-11-04T11:38:42.343Z,97840.75
2022-11-04T11:42:04.064Z,97839.32
2022-11-04T11:45:26.024Z,97832.30
2022-11-04T11:48:45.663Z,97825.30
2022-11-04T11:51:57.895Z,97810.42
2022-11-04T11:55:16.700Z,97820.33
2022-11-04T12:01:56.229Z,97816.47
2022-11-04T12:12:47.040Z,97815.60
2022-11-04T12:16:23.733Z,97801.38
2022-11-04T12:19:57.506Z,97804.05
2022-11-04T12:23:17.727Z,97807.11
2022-11-04T12:26:40.536Z,97800.50
2022-11-04T12:30:08.706Z,97798.03
2022-11-04T12:33:30.848Z,97791.84
2022-11-04T12:37:01.788Z,97797.61
2022-11-04T12:40:26.896Z,97795.56
2022-11-04T12:43:45.451Z,97784.86
2022-11-04T12:47:05.132Z,97783.02
2022-11-04T12:50:45.365Z,97750.85
2022-11-04T12:54:09.257Z,97777.07
2022-11-04T12:57:30.403Z,97774.00
2022-11-04T13:00:46.201Z,97785.34
2022-11-04T13:04:06.093Z,97788.88
2022-11-04T13:07:24.158Z,97787.01
2022-11-04T13:10:44.580Z,97789.48
2022-11-04T13:14:03.340Z,97790.94
2022-11-04T13:17:20.746Z,97781.66
2022-11-04T13:20:42.914Z,97782.63
2022-11-04T13:24:01.840Z,97787.81
2022-11-04T13:27:24.559Z,97783.26
2022-11-04T13:30:44.454Z,97784.68
2022-11-04T13:34:02.248Z,97782.80
2022-11-04T13:37:24.804Z,97790.84
2022-11-04T13:40:45.641Z,97790.59
2022-11-04T13:44:02.637Z,97792.84
2022-11-04T13:47:22.369Z,97786.87
2022-11-04T13:50:43.684Z,97775.91
2022-11-04T13:54:00.146Z,97796.73
2022-11-04T13:57:20.895Z,97789.67
2022-11-04T14:00:35.762Z,97793.55
2022-11-04T14:04:02.334Z,97796.59
2022-11-04T14:07:18.059Z,97798.02
2022-11-04T14:10:49.385Z,97802.10
2022-11-04T14:14:25.542Z,97793.19
2022-11-04T14:18:13.093Z,97777.27
2022-11-04T14:21:29.368Z,97792.52
2022-11-04T14:24:41.929Z,97792.92
2022-11-04T14:27:57.052Z,97798.67
2022-11-04T14:31:17.465Z,97797.15
2022-11-04T14:34:37.682Z,97787.80
2022-11-04T14:37:55.492Z,97797.09
2022-11-04T14:41:36.285Z,97812.06
2022-11-04T14:44:52.959Z,97780.88
2022-11-04T14:48:15.987Z,97803.12
2022-11-04T14:51:34.492Z,97784.61
2022-11-04T14:54:47.332Z,97782.94
2022-11-04T14:58:04.155Z,97784.75
2022-11-04T15:01:16.824Z,97792.70
2022-11-04T15:04:33.942Z,97792.46
2022-11-04T15:07:46.924Z,97781.50
2022-11-04T15:11:06.222Z,97770.52
2022-11-04T15:14:29.759Z,97783.94
2022-11-04T15:17:42.608Z,97798.50
2022-11-04T15:20:58.885Z,97796.02
2022-11-04T15:24:14.856Z,97793.48
2022-11-04T15:27:34.418Z,97791.73
2022-11-04T15:30:46.891Z,97805.00
2022-11-04T15:34:02.360Z,97802.89
2022-11-04T15:37:18.184Z,97806.80
2022-11-04T15:40:34.213Z,97798.89
2022-11-04T15:43:47.007Z,97792.97
2022-11-04T15:47:07.004Z,97783.13
2022-11-04T15:50:29.969Z,97784.80
2022-11-04T15:53:54.621Z,97783.74
2022-11-04T15:57:12.665Z,97788.80
2022-11-04T16:00:34.237Z,97782.57
2022-11-04T16:03:46.821Z,97784.70
2022-11-04T16:07:28.327Z,97782.23
2022-11-04T16:10:42.397Z,97780.47
2022-11-04T16:13:54.742Z,97780.86
2022-11-04T16:17:07.203Z,97775.62
2022-11-04T16:20:26.701Z,97772.95
2022-11-04T16:23:42.566Z,97776.91
2022-11-04T16:26:55.811Z,97774.61
2022-11-04T16:30:21.227Z,97763.04
2022-11-04T16:33:35.172Z,97774.34
2022-11-04T16:36:47.701Z,97768.38
2022-11-04T16:40:00.220Z,97755.91
2022-11-04T16:43:14.770Z,97771.91
2022-11-04T16:46:28.081Z,97770.42
2022-11-04T16:49:40.594Z,97764.09
2022-11-04T16:52:53.949Z,97773.38
2022-11-04T16:56:07.499Z,97771.36
2022-11-04T16:59:20.498Z,97770.23
2022-11-04T17:02:37.795Z,97779.44
2022-11-04T17:05:50.453Z,97775.30
2022-11-04T17:09:03.522Z,97764.28
2022-11-04T17:12:16.183Z,97762.62
2022-11-04T17:15:28.708Z,97763.34
2022-11-04T17:18:42.741Z,97769.70
2022-11-04T17:21:55.476Z,97768.67
2022-11-04T17:25:08.352Z,97764.09
2022-11-04T17:28:21.061Z,97767.48
2022-11-04T17:31:33.532Z,97777.95
2022-11-04T17:34:46.013Z,97789.64
2022-11-04T17:38:00.976Z,97785.03
2022-11-04T17:41:27.705Z,97758.05
2022-11-04T17:44:40.256Z,97772.13
2022-11-04T17:47:52.644Z,97763.03
2022-11-04T17:51:05.184Z,97763.03
2022-11-04T17:54:19.107Z,97774.28
2022-11-04T17:57:31.675Z,97782.58
2022-11-04T18:00:44.222Z,97790.20
2022-11-04T18:03:59.406Z,97788.55
2022-11-04T18:07:11.729Z,97792.40
2022-11-04T18:10:24.425Z,97788.63
2022-11-04T18:13:37.566Z,97798.97
2022-11-04T18:16:51.453Z,97790.29
2022-11-04T18:20:05.460Z,97783.35
2022-11-04T18:23:18.512Z,97793.71
2022-11-04T18:26:31.669Z,97789.28
2022-11-04T18:29:44.554Z,97784.34
2022-11-04T18:32:57.303Z,97789.66
2022-11-04T18:36:13.200Z,97779.72
2022-11-04T18:39:26.456Z,97763.65
2022-11-04T18:42:38.814Z,97774.77
2022-11-04T18:45:53.429Z,97769.12
2022-11-04T18:49:05.929Z,97779.47
2022-11-04T18:52:18.277Z,97788.44
2022-11-04T18:55:30.982Z,97792.95
2022-11-04T18:58:45.155Z,97789.75
2022-11-04T19:01:57.685Z,97799.40
2022-11-04T19:05:11.140Z,97788.80
2022-11-04T19:08:23.737Z,97793.77
2022-11-04T19:11:40.047Z,97798.13
2022-11-04T19:14:52.597Z,97815.88
2022-11-04T19:18:05.081Z,97810.73
2022-11-04T19:21:19.413Z,97810.41
2022-11-04T19:24:32.568Z,97817.22
2022-11-04T19:27:45.041Z,97816.09
2022-11-04T19:31:06.806Z,97816.59
2022-11-04T19:34:19.136Z,97805.84
2022-11-04T19:37:33.086Z,97827.44
2022-11-04T19:40:50.877Z,97835.89
2022-11-04T19:44:00.365Z,97830.75
2022-11-04T19:47:13.862Z,97846.70
2022-11-04T19:50:27.004Z,97835.09
2022-11-04T19:53:42.145Z,97842.41
2022-11-04T19:56:54.532Z,97839.44
2022-11-04T20:00:06.825Z,97838.75
2022-11-04T20:03:21.555Z,97831.99
2022-11-04T20:06:34.196Z,97832.80
2022-11-04T20:09:46.552Z,97836.47
2022-11-04T20:13:13.578Z,97840.11
2022-11-04T20:16:31.828Z,97826.84
2022-11-04T20:19:45.501Z,97837.63
2022-11-04T20:22:58.024Z,97833.83
2022-11-04T20:26:20.624Z,97827.52
2022-11-04T20:29:33.652Z,97831.19
2022-11-04T20:32:45.970Z,97798.35
2022-11-04T20:35:58.471Z,97818.75
2022-11-04T20:39:14.863Z,97826.87
2022-11-04T20:42:27.375Z,97820.94
2022-11-04T20:45:39.849Z,97809.31
2022-11-04T20:48:52.482Z,97827.41
2022-11-04T20:52:04.979Z,97822.58
2022-11-04T20:55:18.761Z,97831.56
2022-11-04T20:58:30.992Z,97848.13
2022-11-04T21:01:47.668Z,97855.43
2022-11-04T21:05:00.628Z,97861.94
2022-11-04T21:08:13.387Z,97873.05
2022-11-04T21:11:31.701Z,97878.19
2022-11-04T21:14:42.561Z,97881.68
2022-11-04T21:17:54.890Z,97892.30
2022-11-04T21:21:12.198Z,97890.31
2022-11-04T21:24:24.682Z,97889.65
2022-11-04T21:27:36.976Z,97894.97
2022-11-04T21:30:53.246Z,97901.92
2022-11-04T21:34:06.277Z,97895.80
2022-11-04T21:37:18.646Z,97888.98
2022-11-04T21:40:30.892Z,97879.03
2022-11-04T21:43:43.686Z,97893.47
2022-11-04T21:46:57.679Z,97892.30
2022-11-04T21:50:16.728Z,97887.34
2022-11-04T21:53:25.699Z,97892.30
2022-11-04T21:56:39.053Z,97867.08
2022-11-04T21:59:51.558Z,97892.80
2022-11-04T22:03:03.787Z,97891.99
2022-11-04T22:06:18.484Z,97900.28
2022-11-04T22:09:30.960Z,97888.50
2022-11-04T22:12:45.841Z,97901.95
2022-11-04T22:16:06.271Z,97907.90
2022-11-04T22:19:19.453Z,97895.80
2022-11-04T22:22:31.938Z,97903.59
2022-11-04T22:25:49.764Z,97903.77
2022-11-04T22:28:59.990Z,97913.23
2022-11-04T22:32:12.401Z,97904.09
2022-11-04T22:35:25.417Z,97914.89
2022-11-04T22:38:39.342Z,97915.55
2022-11-04T22:41:51.817Z,97910.58
2022-11-04T22:45:05.415Z,97906.25
2022-11-04T22:48:17.926Z,97890.31
2022-11-04T22:51:31.561Z,97896.29
2022-11-04T22:54:44.092Z,97887.66
2022-11-04T22:57:56.700Z,97877.20
2022-11-04T23:01:12.329Z,97874.38
2022-11-04T23:04:24.787Z,97876.22
2022-11-04T23:07:36.999Z,97901.43
2022-11-04T23:10:59.797Z,97894.97
2022-11-04T23:14:24.227Z,97892.30
2022-11-04T23:17:50.591Z,97892.30
2022-11-04T23:21:17.139Z,97903.28
2022-11-04T23:24:43.712Z,97895.31
2022-11-04T23:28:13.408Z,97901.78
2022-11-04T23:31:25.664Z,97896.47
2022-11-04T23:34:52.381Z,97895.14
2022-11-04T23:38:06.360Z,97904.61
2022-11-04T23:41:32.529Z,97909.23
2022-11-04T23:44:58.949Z,97906.74
2022-11-04T23:48:27.447Z,97919.36
2022-11-04T23:51:54.105Z,97903.42
2022-11-04T23:55:20.811Z,97932.50
2022-11-04T23:58:47.359Z,97929.18
